Time;durP1;ratioP1;P1;durP2;ratioP2;P2;SDS_P1;SDS_P2;PMS_P1;PMS_P2;Temp;Humidity;BMP_temperature;BMP_pressure;BME280_temperature;BME280_humidity;BME280_pressure;Samples;Min_cycle;Max_cycle;Signal;HPM_P1;HPM_P2
2023/08/15 00:00:16;;;;;;;9.60;8.55;;;;;;;20.22;100.00;101037.31;5062724;28;20047;-84
2023/08/15 00:02:41;;;;;;;8.52;7.70;;;;;;;20.24;100.00;101043.34;5048709;28;20037;-84
2023/08/15 00:05:07;;;;;;;10.05;8.15;;;;;;;20.19;100.00;101050.66;5051420;28;20028;-85
2023/08/15 00:07:36;;;;;;;9.15;8.23;;;;;;;20.10;100.00;101037.47;5049862;28;20033;-85
2023/08/15 00:10:11;;;;;;;10.90;8.38;;;;;;;20.10;100.00;101040.22;5053665;28;20455;-85
2023/08/15 00:12:36;;;;;;;9.67;8.00;;;;;;;20.08;100.00;101033.31;5057085;28;20106;-84
2023/08/15 00:15:02;;;;;;;10.07;7.82;;;;;;;20.05;100.00;101037.41;5069566;28;20291;-84
2023/08/15 00:17:28;;;;;;;10.15;7.80;;;;;;;20.08;100.00;101039.63;5084844;28;20109;-84
2023/08/15 00:19:53;;;;;;;8.57;7.68;;;;;;;20.11;100.00;101036.41;5074806;28;20056;-84
2023/08/15 00:22:22;;;;;;;9.70;8.02;;;;;;;20.07;100.00;101034.41;5063095;28;20093;-84
2023/08/15 00:24:47;;;;;;;8.52;7.68;;;;;;;19.99;100.00;101030.22;5048643;28;20040;-84
2023/08/15 00:27:12;;;;;;;9.35;7.95;;;;;;;19.93;100.00;101031.28;5049429;28;20449;-84
2023/08/15 00:29:38;;;;;;;10.18;7.97;;;;;;;19.97;100.00;101032.38;5069060;28;20021;-85
2023/08/15 00:32:03;;;;;;;9.25;7.70;;;;;;;19.92;100.00;101029.63;5064013;28;20389;-83
2023/08/15 00:34:29;;;;;;;10.18;7.70;;;;;;;19.86;100.00;101025.94;5060386;28;20024;-83
2023/08/15 00:36:54;;;;;;;10.10;7.57;;;;;;;19.91;100.00;101026.03;5058124;28;20017;-83
2023/08/15 00:39:20;;;;;;;8.43;7.32;;;;;;;19.84;100.00;101018.00;5053164;28;20116;-83
2023/08/15 00:41:45;;;;;;;8.40;7.40;;;;;;;19.78;100.00;101029.94;5051008;28;20032;-83
2023/08/15 00:44:10;;;;;;;9.20;7.13;;;;;;;19.78;100.00;101023.69;5056355;28;20349;-83
2023/08/15 00:46:36;;;;;;;10.68;7.47;;;;;;;19.74;100.00;101023.38;5063059;28;20465;-83
2023/08/15 00:49:02;;;;;;;8.13;7.05;;;;;;;19.83;100.00;101024.56;5034518;28;20549;-83
2023/08/15 00:51:27;;;;;;;7.75;6.95;;;;;;;19.83;100.00;101010.91;5021579;28;20033;-83
2023/08/15 00:53:53;;;;;;;7.95;7.05;;;;;;;19.73;100.00;101016.25;5036196;28;20020;-83
2023/08/15 00:56:21;;;;;;;10.02;7.20;;;;;;;19.73;100.00;101016.25;5017041;28;20029;-83
2023/08/15 00:58:47;;;;;;;9.98;7.53;;;;;;;19.67;100.00;101011.78;5012127;28;20033;-83
2023/08/15 01:01:15;;;;;;;8.50;7.32;;;;;;;19.58;100.00;101002.41;5033743;28;20091;-83
2023/08/15 01:03:40;;;;;;;9.38;7.47;;;;;;;19.47;100.00;100991.34;5042107;28;20400;-83
2023/08/15 01:06:06;;;;;;;9.05;7.68;;;;;;;19.36;100.00;101006.75;5034155;28;20163;-83
2023/08/15 01:08:31;;;;;;;8.90;7.55;;;;;;;19.29;100.00;100999.84;5053535;28;20029;-83
2023/08/15 01:10:56;;;;;;;7.93;7.20;;;;;;;19.27;100.00;101012.91;5060472;28;20396;-83
2023/08/15 01:13:29;;;;;;;9.82;6.97;;;;;;;19.38;100.00;101015.53;5053271;28;20039;-84
2023/08/15 01:15:54;;;;;;;10.48;7.65;;;;;;;19.30;100.00;101004.22;5050736;28;20048;-84
2023/08/15 01:18:33;;;;;;;9.15;7.13;;;;;;;19.23;100.00;101001.66;5023158;28;20033;-83
2023/08/15 01:20:58;;;;;;;8.02;7.22;;;;;;;19.17;100.00;101006.22;5057197;28;20028;-83
2023/08/15 01:23:33;;;;;;;8.25;7.30;;;;;;;19.15;100.00;101000.19;5020313;28;20033;-84
2023/08/15 01:25:58;;;;;;;8.13;7.32;;;;;;;19.10;100.00;100997.38;5042456;28;20025;-84
2023/08/15 01:28:24;;;;;;;10.23;7.60;;;;;;;19.03;100.00;100989.38;5063050;28;20700;-84
2023/08/15 01:30:58;;;;;;;8.75;7.85;;;;;;;19.00;100.00;100991.78;5052290;28;20452;-83
2023/08/15 01:33:30;;;;;;;7.93;7.13;;;;;;;18.96;100.00;100991.47;5036274;28;20033;-83
2023/08/15 01:36:00;;;;;;;7.78;7.05;;;;;;;18.93;100.00;100987.28;5045165;28;20025;-83
2023/08/15 01:38:34;;;;;;;7.22;6.57;;;;;;;18.90;100.00;100985.06;5017172;28;20029;-83
2023/08/15 01:41:00;;;;;;;9.23;7.07;;;;;;;18.86;100.00;100981.22;5061687;28;20032;-83
2023/08/15 01:43:25;;;;;;;8.13;7.28;;;;;;;18.84;100.00;100979.78;5055089;28;20059;-84
2023/08/15 01:45:54;;;;;;;8.07;6.93;;;;;;;18.82;100.00;100980.03;5026677;28;20151;-84
2023/08/15 01:48:19;;;;;;;8.60;7.70;;;;;;;18.81;100.00;100969.38;5052299;28;20021;-84
2023/08/15 01:50:45;;;;;;;9.00;8.10;;;;;;;18.78;100.00;100967.97;5053139;28;20029;-84
2023/08/15 01:53:10;;;;;;;9.60;7.95;;;;;;;18.77;100.00;100967.16;5068673;28;20509;-84
2023/08/15 01:55:36;;;;;;;11.13;8.27;;;;;;;18.77;100.00;100971.78;5056122;28;20040;-84
2023/08/15 01:58:01;;;;;;;9.93;8.43;;;;;;;18.75;100.00;100979.38;5053562;28;20036;-83
2023/08/15 02:00:27;;;;;;;9.48;7.78;;;;;;;18.78;100.00;100987.06;5050889;28;20029;-84
2023/08/15 02:02:53;;;;;;;8.90;7.82;;;;;;;18.78;100.00;100984.34;5056268;28;20373;-84
2023/08/15 02:05:19;;;;;;;9.20;8.25;;;;;;;18.77;100.00;100972.63;5063754;28;20038;-84
2023/08/15 02:07:44;;;;;;;8.60;7.60;;;;;;;18.81;100.00;100974.81;5064734;28;20469;-84
2023/08/15 02:10:10;;;;;;;7.70;7.05;;;;;;;18.89;100.00;100988.06;5054792;28;20121;-84
2023/08/15 02:12:36;;;;;;;8.93;7.20;;;;;;;19.01;100.00;100993.44;5056072;28;20033;-84
2023/08/15 02:15:04;;;;;;;7.88;7.03;;;;;;;19.14;100.00;100995.00;5059472;28;20036;-84
2023/08/15 02:17:29;;;;;;;8.48;7.00;;;;;;;19.19;100.00;100995.91;5074386;28;20028;-84
2023/08/15 02:19:55;;;;;;;7.43;6.72;;;;;;;19.20;100.00;100997.56;5059548;28;20047;-84
2023/08/15 02:22:20;;;;;;;7.80;7.00;;;;;;;19.27;100.00;100989.19;5083563;28;20016;-84
2023/08/15 02:24:45;;;;;;;7.70;6.88;;;;;;;19.32;100.00;101002.06;5081645;28;20468;-84
2023/08/15 02:27:11;;;;;;;7.80;6.97;;;;;;;19.42;100.00;101006.84;5064456;28;20043;-84
2023/08/15 02:29:36;;;;;;;8.20;6.72;;;;;;;19.40;100.00;101009.84;5055684;28;20460;-84
2023/08/15 02:32:03;;;;;;;7.82;7.00;;;;;;;19.52;100.00;101009.69;5051753;28;20021;-83
2023/08/15 02:34:28;;;;;;;7.53;6.75;;;;;;;19.66;100.00;101010.97;5059789;28;20028;-84
2023/08/15 02:36:57;;;;;;;8.93;6.82;;;;;;;19.72;100.00;101025.53;5074883;28;20041;-83
2023/08/15 02:39:24;;;;;;;8.85;6.88;;;;;;;19.82;100.00;101027.56;5066130;28;20027;-84
2023/08/15 02:42:07;;;;;;;7.55;6.53;;;;;;;19.97;100.00;101026.91;5067097;28;20147;-84
2023/08/15 02:44:33;;;;;;;7.78;7.07;;;;;;;20.05;100.00;101023.75;5066267;28;20055;-84
2023/08/15 02:46:58;;;;;;;11.55;7.18;;;;;;;20.18;100.00;101018.94;5057457;28;20041;-84
2023/08/15 02:49:24;;;;;;;7.85;6.70;;;;;;;20.24;100.00;101012.47;5050373;28;20029;-84
2023/08/15 02:51:49;;;;;;;9.43;6.65;;;;;;;20.21;100.00;101015.69;5038016;28;20434;-84
2023/08/15 02:54:15;;;;;;;8.05;6.65;;;;;;;20.30;100.00;101016.88;5062064;28;20670;-84
2023/08/15 02:56:40;;;;;;;7.22;6.53;;;;;;;20.36;100.00;101018.59;5053461;28;20036;-84
2023/08/15 02:59:06;;;;;;;7.38;6.63;;;;;;;20.39;100.00;101018.06;5053887;28;20469;-84
2023/08/15 03:01:32;;;;;;;7.50;6.80;;;;;;;20.41;100.00;101015.06;5050516;28;20033;-78
2023/08/15 03:03:58;;;;;;;7.30;6.50;;;;;;;20.40;100.00;101010.69;5055114;28;20113;-78
2023/08/15 03:06:23;;;;;;;8.45;6.68;;;;;;;20.40;100.00;101024.34;5052219;28;20665;-78
2023/08/15 03:08:49;;;;;;;7.80;6.85;;;;;;;20.38;100.00;101029.28;5053027;28;20079;-78
2023/08/15 03:11:14;;;;;;;7.93;7.10;;;;;;;20.40;100.00;101024.34;5047496;28;20029;-78
2023/08/15 03:13:39;;;;;;;8.25;7.43;;;;;;;20.39;100.00;101018.06;5063804;28;20412;-78
2023/08/15 03:16:05;;;;;;;7.50;6.70;;;;;;;20.37;100.00;101013.97;5058125;28;20492;-77
2023/08/15 03:18:30;;;;;;;7.75;6.97;;;;;;;20.34;100.00;101020.75;5065951;28;20044;-78
2023/08/15 03:21:00;;;;;;;7.78;6.88;;;;;;;20.28;100.00;101021.81;5054018;28;20029;-78
2023/08/15 03:23:26;;;;;;;7.82;6.80;;;;;;;20.24;100.00;101015.19;5050565;28;20174;-78
2023/08/15 03:25:58;;;;;;;7.57;6.47;;;;;;;20.24;100.00;101012.47;5061069;28;20115;-78
2023/08/15 03:28:25;;;;;;;7.75;6.90;;;;;;;20.20;100.00;101016.78;5061242;28;20095;-78
2023/08/15 03:30:51;;;;;;;7.95;7.15;;;;;;;20.14;100.00;101024.94;5048378;28;20021;-77
2023/08/15 03:33:16;;;;;;;9.63;7.45;;;;;;;20.11;100.00;101022.72;5050190;28;20496;-77
2023/08/15 03:35:50;;;;;;;8.20;7.30;;;;;;;20.08;100.00;101028.69;5057345;28;20039;-78
2023/08/15 03:38:20;;;;;;;7.43;6.53;;;;;;;20.10;100.00;101015.63;5048348;28;20095;-77
2023/08/15 03:40:46;;;;;;;7.50;6.72;;;;;;;20.09;100.00;101011.22;5050345;28;20562;-79
2023/08/15 03:43:12;;;;;;;8.35;7.47;;;;;;;20.04;100.00;101011.16;5058581;28;20045;-78
2023/08/15 03:45:38;;;;;;;7.70;7.00;;;;;;;19.95;100.00;101019.00;5051162;28;20368;-78
2023/08/15 03:48:07;;;;;;;7.47;6.78;;;;;;;19.88;100.00;101014.81;5051376;28;20110;-77
2023/08/15 03:50:37;;;;;;;7.93;7.10;;;;;;;19.93;100.00;101020.34;5050652;28;20075;-78
2023/08/15 03:53:02;;;;;;;8.48;6.80;;;;;;;19.81;100.00;101004.84;5050754;28;20126;-78
2023/08/15 03:55:28;;;;;;;8.65;7.75;;;;;;;19.70;100.00;101005.84;5058185;28;20033;-78
2023/08/15 03:57:54;;;;;;;8.50;7.05;;;;;;;19.68;100.00;101008.81;5057983;28;20025;-78
2023/08/15 04:00:21;;;;;;;12.07;7.88;;;;;;;19.63;100.00;101005.19;5056720;28;20036;-78
2023/08/15 04:02:50;;;;;;;9.95;8.10;;;;;;;19.57;100.00;101000.75;5057946;28;20021;-78
2023/08/15 04:05:16;;;;;;;8.70;7.80;;;;;;;19.51;100.00;100995.22;5063976;28;20058;-78
2023/08/15 04:07:41;;;;;;;8.73;7.80;;;;;;;19.45;100.00;100996.22;5051015;28;20021;-80
2023/08/15 04:10:15;;;;;;;9.05;7.60;;;;;;;19.49;100.00;100991.09;5051658;28;20664;-83
2023/08/15 04:12:40;;;;;;;10.25;7.82;;;;;;;19.44;100.00;100996.50;5049368;28;20029;-88
2023/08/15 04:15:06;;;;;;;9.27;8.25;;;;;;;19.34;100.00;100997.19;5052288;28;20087;-82
2023/08/15 04:17:37;;;;;;;8.57;7.78;;;;;;;19.30;100.00;100998.75;5053492;28;20314;-83
2023/08/15 04:20:07;;;;;;;8.35;7.40;;;;;;;19.23;100.00;101002.50;5043583;28;20032;-81
2023/08/15 04:22:33;;;;;;;8.52;7.63;;;;;;;19.24;100.00;101001.41;5050828;28;20080;-82
2023/08/15 04:24:58;;;;;;;10.35;8.00;;;;;;;19.16;100.00;101011.94;5046874;28;20029;-81
2023/08/15 04:27:23;;;;;;;11.13;8.30;;;;;;;19.08;100.00;101000.38;5057555;28;20083;-81
2023/08/15 04:29:55;;;;;;;10.18;8.68;;;;;;;19.02;100.00;101006.00;5054745;28;20029;-82
2023/08/15 04:32:22;;;;;;;10.75;8.30;;;;;;;19.06;100.00;101024.34;5042217;28;20037;-82
2023/08/15 04:34:50;;;;;;;9.75;7.50;;;;;;;19.07;100.00;101041.53;5057624;28;20060;-83
2023/08/15 04:37:15;;;;;;;14.32;8.45;;;;;;;18.98;100.00;101035.69;5058679;28;20032;-81
2023/08/15 04:39:41;;;;;;;12.07;7.53;;;;;;;18.88;100.00;101049.97;5054098;28;20029;-81
2023/08/15 04:42:09;;;;;;;13.35;7.72;;;;;;;18.88;100.00;101065.50;5046226;28;20021;-80
2023/08/15 04:44:34;;;;;;;10.57;7.55;;;;;;;18.89;100.00;101067.97;5059913;28;20050;-80
2023/08/15 04:46:59;;;;;;;10.45;6.90;;;;;;;18.84;98.15;101088.88;5058077;28;20032;-81
2023/08/15 04:49:25;;;;;;;9.48;6.30;;;;;;;18.77;97.13;101091.78;5060595;28;20431;-81
2023/08/15 04:51:50;;;;;;;9.55;6.28;;;;;;;18.74;94.87;101093.09;5056371;28;20482;-80
2023/08/15 04:54:17;;;;;;;11.07;6.93;;;;;;;18.67;94.27;101095.16;5064817;28;20094;-82
2023/08/15 04:56:43;;;;;;;9.23;6.13;;;;;;;18.62;93.70;101109.53;5076147;28;20040;-81
2023/08/15 04:59:08;;;;;;;12.65;6.13;;;;;;;18.56;92.08;101117.84;5063928;28;20029;-82
2023/08/15 05:01:33;;;;;;;8.70;5.47;;;;;;;18.71;91.32;101125.50;5068559;28;20029;-82
2023/08/15 05:03:59;;;;;;;10.05;5.38;;;;;;;18.74;90.44;101130.44;5068302;28;20078;-82
2023/08/15 05:06:24;;;;;;;9.77;5.38;;;;;;;18.77;88.57;101136.25;5059973;28;20032;-82
2023/08/15 05:08:58;;;;;;;8.23;5.22;;;;;;;18.72;88.68;101152.53;5060471;28;20028;-82
2023/08/15 05:11:24;;;;;;;7.53;4.50;;;;;;;18.66;88.22;101166.31;5062909;28;20028;-82
2023/08/15 05:13:49;;;;;;;6.55;4.63;;;;;;;18.53;88.85;101168.25;5071062;28;20017;-82
2023/08/15 05:16:14;;;;;;;8.98;4.85;;;;;;;18.48;88.07;101159.97;5063775;28;20055;-82
2023/08/15 05:18:40;;;;;;;6.70;4.53;;;;;;;18.53;87.57;101167.41;5064016;28;20116;-82
2023/08/15 05:21:06;;;;;;;11.13;4.95;;;;;;;18.43;88.17;101174.34;5052281;28;20033;-82
2023/08/15 05:23:31;;;;;;;7.85;4.82;;;;;;;18.48;87.75;101181.78;5054112;28;20461;-82
2023/08/15 05:25:56;;;;;;;7.25;4.72;;;;;;;18.45;88.42;101190.44;5052921;28;20027;-82
2023/08/15 05:28:22;;;;;;;8.13;4.47;;;;;;;18.55;87.85;101187.91;5053871;28;20021;-82
2023/08/15 05:30:47;;;;;;;7.60;4.13;;;;;;;18.53;87.65;101195.53;5061768;28;20063;-82
2023/08/15 05:33:14;;;;;;;8.48;4.35;;;;;;;18.43;88.42;101189.84;5063652;28;20020;-83
2023/08/15 05:35:39;;;;;;;10.25;4.55;;;;;;;18.31;89.35;101189.88;5061362;28;20108;-82
2023/08/15 05:38:05;;;;;;;10.35;4.53;;;;;;;18.32;89.88;101192.38;5051747;28;20031;-82
2023/08/15 05:40:32;;;;;;;8.65;4.40;;;;;;;18.30;90.30;101202.69;5057290;28;20518;-83
2023/08/15 05:42:58;;;;;;;10.23;5.38;;;;;;;18.40;89.34;101206.69;5043663;28;20107;-83
2023/08/15 05:45:23;;;;;;;7.68;5.05;;;;;;;18.51;89.30;101211.28;5061757;28;20017;-83
2023/08/15 05:47:51;;;;;;;9.90;5.22;;;;;;;18.60;88.93;101207.09;5053812;28;20043;-83
2023/08/15 05:50:17;;;;;;;10.15;5.22;;;;;;;18.61;89.23;101214.22;5051475;28;20028;-83
2023/08/15 05:52:42;;;;;;;7.90;5.20;;;;;;;18.51;90.27;101214.00;5056759;28;20023;-80
2023/08/15 05:55:08;;;;;;;10.75;5.78;;;;;;;18.57;89.52;101210.31;5059889;28;20362;-83
2023/08/15 05:57:33;;;;;;;11.48;5.38;;;;;;;18.68;88.94;101207.78;5064841;28;20048;-86
2023/08/15 05:59:58;;;;;;;9.20;5.50;;;;;;;18.60;89.83;101212.56;5067794;28;20453;-84
2023/08/15 06:02:24;;;;;;;9.10;5.47;;;;;;;18.74;89.35;101212.25;5064429;28;21886;-84
2023/08/15 06:04:49;;;;;;;11.38;5.68;;;;;;;18.74;88.92;101212.25;5061146;28;20479;-81
2023/08/15 06:07:15;;;;;;;10.95;5.35;;;;;;;18.96;87.79;101214.34;5056731;28;20025;-86
2023/08/15 06:09:40;;;;;;;7.90;5.15;;;;;;;18.84;88.93;101217.94;5059252;28;20062;-82
2023/08/15 06:12:06;;;;;;;9.02;5.03;;;;;;;19.16;87.38;101214.72;5045159;28;20031;-83
2023/08/15 06:14:33;;;;;;;11.43;5.25;;;;;;;19.22;87.50;101213.75;5064214;28;20059;-80
2023/08/15 06:16:58;;;;;;;9.38;5.18;;;;;;;20.06;83.38;101222.16;5060836;28;20022;-80
2023/08/15 06:19:24;;;;;;;8.38;5.07;;;;;;;21.23;77.55;101228.44;5031365;28;20443;-79
2023/08/15 06:21:49;;;;;;;10.68;4.95;;;;;;;21.79;74.30;101230.88;5048287;28;20024;-79
2023/08/15 06:24:15;;;;;;;9.80;5.00;;;;;;;22.55;70.82;101238.97;5061889;28;20040;-78
2023/08/15 06:26:40;;;;;;;11.43;5.10;;;;;;;23.32;70.21;101249.31;5050336;28;20036;-77
2023/08/15 06:29:06;;;;;;;9.52;4.53;;;;;;;24.02;67.12;101246.00;5054539;28;20029;-77
2023/08/15 06:31:34;;;;;;;5.95;4.07;;;;;;;25.43;60.96;101247.81;5044853;28;20381;-79
2023/08/15 06:34:00;;;;;;;8.55;3.88;;;;;;;27.27;53.72;101249.00;5047397;28;20098;-79
2023/08/15 06:36:25;;;;;;;10.30;4.47;;;;;;;26.44;57.03;101245.44;5050052;28;20470;-79
2023/08/15 06:38:51;;;;;;;8.95;4.20;;;;;;;26.15;55.84;101248.28;5052226;28;20037;-79
2023/08/15 06:41:16;;;;;;;7.78;4.10;;;;;;;25.35;57.71;101258.59;5051876;28;20067;-77
2023/08/15 06:43:43;;;;;;;8.98;4.40;;;;;;;23.99;62.26;101263.09;5053273;28;20460;-77
2023/08/15 06:46:08;;;;;;;8.38;4.50;;;;;;;22.23;69.19;101264.56;5051858;28;20029;-77
2023/08/15 06:48:34;;;;;;;9.95;4.60;;;;;;;21.45;73.67;101265.91;5058441;28;20086;-77
2023/08/15 06:50:59;;;;;;;9.43;4.35;;;;;;;22.22;71.20;101262.91;5064966;28;20031;-77
2023/08/15 06:53:27;;;;;;;11.63;4.22;;;;;;;23.21;67.51;101261.41;5052627;28;20028;-77
2023/08/15 06:55:53;;;;;;;7.82;3.95;;;;;;;24.97;61.24;101264.66;5041613;28;20099;-78
2023/08/15 06:58:18;;;;;;;8.98;3.97;;;;;;;25.30;61.04;101265.00;5053962;28;20056;-78
2023/08/15 07:00:47;;;;;;;12.48;4.40;;;;;;;26.21;56.89;101274.66;5053979;28;20052;-78
2023/08/15 07:03:16;;;;;;;7.65;3.45;;;;;;;27.58;52.50;101276.19;5050973;28;20389;-78
2023/08/15 07:05:42;;;;;;;8.20;3.67;;;;;;;27.13;54.29;101271.88;5059308;28;20033;-78
2023/08/15 07:08:08;;;;;;;10.63;4.03;;;;;;;26.35;56.83;101269.28;5062094;28;20047;-78
2023/08/15 07:10:34;;;;;;;6.05;2.85;;;;;;;28.48;49.26;101272.31;5062043;28;20102;-78
2023/08/15 07:12:59;;;;;;;6.45;3.05;;;;;;;29.29;46.87;101274.41;5050003;28;20029;-78
2023/08/15 07:15:25;;;;;;;7.18;3.17;;;;;;;29.13;46.12;101273.94;5051566;28;20049;-78
2023/08/15 07:17:50;;;;;;;7.60;3.30;;;;;;;27.42;51.57;101273.66;5067202;28;20456;-78
2023/08/15 07:20:16;;;;;;;8.15;3.20;;;;;;;28.01;49.97;101287.03;5064832;28;20059;-77
2023/08/15 07:22:41;;;;;;;6.43;2.80;;;;;;;30.30;44.40;101284.31;5053757;28;20045;-76
2023/08/15 07:25:07;;;;;;;5.40;3.08;;;;;;;30.26;43.22;101280.53;5067076;28;20021;-77
2023/08/15 07:27:33;;;;;;;6.00;3.10;;;;;;;28.82;46.76;101282.97;5058498;28;20029;-76
2023/08/15 07:29:58;;;;;;;4.32;2.72;;;;;;;28.05;48.96;101279.75;5060005;28;20036;-76
2023/08/15 07:32:24;;;;;;;6.57;2.95;;;;;;;29.29;46.14;101277.16;5051402;28;20044;-76
2023/08/15 07:34:49;;;;;;;6.03;2.80;;;;;;;29.29;45.83;101270.81;5067254;28;20040;-76
2023/08/15 07:37:15;;;;;;;7.10;3.05;;;;;;;29.48;44.86;101263.13;5051139;28;20036;-76
2023/08/15 07:39:40;;;;;;;5.97;2.50;;;;;;;30.51;42.06;101276.19;5057508;28;20464;-76
2023/08/15 07:42:07;;;;;;;6.32;2.90;;;;;;;28.08;47.23;101273.63;5050831;28;20036;-76
2023/08/15 07:44:32;;;;;;;6.93;2.67;;;;;;;29.18;44.52;101275.78;5054574;28;20100;-76
2023/08/15 07:46:57;;;;;;;6.13;2.63;;;;;;;29.39;45.19;101276.13;5062532;28;20074;-79
2023/08/15 07:49:23;;;;;;;4.82;2.67;;;;;;;29.40;44.50;101280.53;5059213;28;20036;-76
2023/08/15 07:51:49;;;;;;;4.85;2.22;;;;;;;29.78;43.92;101282.06;5055803;28;20021;-76
2023/08/15 07:54:15;;;;;;;4.22;2.22;;;;;;;31.06;41.76;101289.88;5052980;28;20043;-76
2023/08/15 07:56:40;;;;;;;4.05;2.38;;;;;;;31.22;42.16;101293.00;5051535;28;20017;-76
2023/08/15 07:59:05;;;;;;;5.10;2.50;;;;;;;30.22;42.75;101297.03;5050553;28;20037;-76
2023/08/15 08:01:32;;;;;;;6.30;2.70;;;;;;;29.78;45.04;101294.00;5051594;28;20029;-76
2023/08/15 08:04:01;;;;;;;5.03;2.45;;;;;;;30.85;41.93;101294.09;5058661;28;20373;-76
2023/08/15 08:06:27;;;;;;;6.40;2.60;;;;;;;29.75;45.12;101297.41;5067513;28;20028;-76
2023/08/15 08:08:52;;;;;;;5.53;2.40;;;;;;;31.44;41.31;101294.78;5055039;28;20075;-76
2023/08/15 08:11:17;;;;;;;6.38;2.60;;;;;;;29.99;44.62;101299.06;5043202;28;20397;-76
2023/08/15 08:13:43;;;;;;;6.65;2.70;;;;;;;29.78;44.18;101316.22;5049752;28;20033;-76
2023/08/15 08:16:08;;;;;;;4.10;2.20;;;;;;;31.66;40.10;101323.56;5057024;28;20048;-77
2023/08/15 08:18:34;;;;;;;4.28;2.08;;;;;;;31.96;39.60;101315.34;5058741;28;20041;-77
2023/08/15 08:21:00;;;;;;;5.93;2.60;;;;;;;32.68;38.08;101315.53;5052360;28;20032;-76
2023/08/15 08:23:31;;;;;;;5.00;2.20;;;;;;;33.21;37.08;101315.16;5037526;28;20033;-76
2023/08/15 08:25:57;;;;;;;5.25;2.20;;;;;;;30.93;41.59;101311.94;5050401;28;20041;-76
2023/08/15 08:28:22;;;;;;;4.53;2.17;;;;;;;30.95;42.00;101309.66;5056096;28;20085;-77
2023/08/15 08:30:48;;;;;;;5.05;2.40;;;;;;;32.09;39.29;101319.06;5062237;28;20024;-76
2023/08/15 08:33:14;;;;;;;4.07;1.92;;;;;;;30.92;41.60;101318.63;5059563;28;20029;-76
2023/08/15 08:35:40;;;;;;;6.95;2.30;;;;;;;30.74;41.30;101323.38;5050838;28;20446;-76
2023/08/15 08:38:05;;;;;;;3.80;2.00;;;;;;;31.73;40.96;101323.94;5059856;28;20021;-76
2023/08/15 08:40:32;;;;;;;5.45;2.30;;;;;;;30.98;40.77;101317.34;5050758;28;20056;-76
2023/08/15 08:42:58;;;;;;;5.05;2.22;;;;;;;31.10;40.65;101315.88;5034287;28;20032;-76
2023/08/15 08:45:24;;;;;;;5.32;1.90;;;;;;;32.15;38.93;101318.53;5028402;28;20038;-76
2023/08/15 08:47:49;;;;;;;4.20;2.10;;;;;;;31.34;39.96;101318.19;5061120;28;20489;-76
2023/08/15 08:50:15;;;;;;;3.58;2.00;;;;;;;30.34;42.34;101326.16;5048035;28;20044;-76
2023/08/15 08:52:41;;;;;;;3.95;2.38;;;;;;;30.46;42.28;101323.56;5032665;28;20407;-76
2023/08/15 08:55:10;;;;;;;4.03;2.20;;;;;;;29.86;44.07;101330.44;5057224;28;20021;-76
2023/08/15 08:57:36;;;;;;;5.75;2.40;;;;;;;29.38;44.64;101332.72;5053447;28;20028;-76
2023/08/15 09:00:01;;;;;;;5.28;2.10;;;;;;;30.67;42.40;101328.56;5063151;28;20369;-75
2023/08/15 09:02:27;;;;;;;5.18;2.10;;;;;;;32.84;38.10;101326.09;5040141;28;20495;-76
2023/08/15 09:04:53;;;;;;;5.78;2.40;;;;;;;31.83;39.56;101326.34;5033513;28;20025;-76
2023/08/15 09:07:21;;;;;;;6.22;2.60;;;;;;;30.82;41.53;101322.56;5063426;28;20036;-76
2023/08/15 09:09:47;;;;;;;5.35;2.60;;;;;;;32.79;37.34;101329.88;5050806;28;20028;-75
2023/08/15 09:12:34;;;;;;;6.05;2.22;;;;;;;31.96;39.66;101332.03;5050165;28;20025;-76
2023/08/15 09:15:06;;;;;;;4.43;2.10;;;;;;;31.11;41.19;101334.19;5054052;28;20044;-76
2023/08/15 09:17:31;;;;;;;4.03;2.08;;;;;;;33.75;35.98;101352.63;5044904;28;20021;-76
2023/08/15 09:19:57;;;;;;;4.25;2.38;;;;;;;34.16;34.88;101342.50;5056394;28;20494;-76
2023/08/15 09:22:24;;;;;;;4.97;2.45;;;;;;;33.00;36.74;101345.84;5039383;28;20345;-75
2023/08/15 09:24:50;;;;;;;5.22;2.53;;;;;;;30.90;40.52;101340.38;5056442;28;20025;-75
2023/08/15 09:27:37;;;;;;;4.10;2.20;;;;;;;30.66;42.05;101343.59;5058647;28;20079;-75
2023/08/15 09:30:15;;;;;;;5.97;2.40;;;;;;;30.84;41.80;101347.25;5061349;28;20025;-75
2023/08/15 09:32:41;;;;;;;4.32;1.90;;;;;;;32.73;36.86;101336.84;5054005;28;20039;-76
2023/08/15 09:35:08;;;;;;;4.15;2.00;;;;;;;31.94;39.17;101340.75;5053947;28;20381;-76
2023/08/15 09:37:33;;;;;;;5.18;2.28;;;;;;;31.94;38.75;101339.94;5068442;28;20455;-77
2023/08/15 09:39:59;;;;;;;4.47;2.10;;;;;;;32.07;38.17;101341.69;5055148;28;20511;-76
2023/08/15 09:42:24;;;;;;;5.13;2.13;;;;;;;33.05;36.60;101346.47;5034806;28;20494;-75
2023/08/15 09:44:50;;;;;;;5.35;1.98;;;;;;;32.10;39.01;101349.38;5054918;28;20027;-75
2023/08/15 09:47:17;;;;;;;5.55;2.20;;;;;;;32.88;36.67;101344.63;5039103;28;20029;-76
2023/08/15 09:49:43;;;;;;;4.57;2.22;;;;;;;32.88;36.86;101346.59;5033958;28;20048;-76
2023/08/15 09:52:08;;;;;;;4.47;2.10;;;;;;;32.39;38.04;101345.03;5053760;28;20024;-76
2023/08/15 09:54:34;;;;;;;4.75;2.00;;;;;;;33.37;36.03;101351.69;5057850;28;20043;-77
2023/08/15 09:56:59;;;;;;;4.88;2.22;;;;;;;33.72;35.33;101349.34;5030242;28;20021;-77
2023/08/15 09:59:24;;;;;;;3.88;2.10;;;;;;;32.96;36.60;101356.88;5065352;28;20029;-74
2023/08/15 10:01:52;;;;;;;5.22;2.47;;;;;;;32.79;37.54;101358.59;5056062;28;20565;-75
2023/08/15 10:04:17;;;;;;;6.03;2.47;;;;;;;32.44;36.92;101367.16;5064762;28;20032;-75
2023/08/15 10:06:46;;;;;;;3.60;2.35;;;;;;;32.71;36.87;101370.59;5050253;28;20021;-75
2023/08/15 10:09:13;;;;;;;6.03;2.63;;;;;;;31.09;39.61;101379.03;5056434;28;20065;-75
2023/08/15 10:11:41;;;;;;;6.25;2.55;;;;;;;30.44;41.07;101370.31;5039237;28;20052;-75
2023/08/15 10:14:07;;;;;;;5.50;2.30;;;;;;;30.58;42.11;101373.00;5045584;28;20021;-75
2023/08/15 10:16:32;;;;;;;4.50;2.30;;;;;;;31.18;41.28;101365.16;5027687;28;20108;-76
2023/08/15 10:18:58;;;;;;;5.13;2.50;;;;;;;31.18;40.85;101367.94;5025493;28;20032;-75
2023/08/15 10:21:26;;;;;;;5.82;2.97;;;;;;;29.50;44.15;101384.88;5047815;28;20477;-75
2023/08/15 10:23:52;;;;;;;5.50;2.70;;;;;;;29.65;43.80;101384.50;5032554;28;20041;-75
2023/08/15 10:26:21;;;;;;;5.82;2.88;;;;;;;29.28;44.81;101393.97;5040564;28;20032;-75
2023/08/15 10:28:47;;;;;;;7.03;2.90;;;;;;;28.92;46.14;101390.00;5045486;28;20036;-75
2023/08/15 10:31:12;;;;;;;6.85;2.85;;;;;;;28.41;46.67;101387.06;5043189;28;20029;-75
2023/08/15 10:33:38;;;;;;;5.88;3.03;;;;;;;27.76;49.14;101388.72;5045668;28;20052;-75
2023/08/15 10:36:03;;;;;;;6.05;2.92;;;;;;;27.64;49.70;101396.66;5048957;28;20029;-75
2023/08/15 10:38:37;;;;;;;4.78;2.50;;;;;;;27.41;50.33;101392.81;5036283;28;20485;-75
2023/08/15 10:41:06;;;;;;;7.20;2.92;;;;;;;27.25;49.66;101395.78;5039326;28;20444;-75
2023/08/15 10:43:35;;;;;;;6.90;2.83;;;;;;;26.49;51.94;101388.91;5042979;28;20041;-75
2023/08/15 10:46:05;;;;;;;7.35;3.33;;;;;;;26.48;52.86;101406.59;5051958;28;20052;-75
2023/08/15 10:48:50;;;;;;;6.35;3.42;;;;;;;26.89;52.15;101401.78;5051222;28;20036;-76
2023/08/15 10:51:34;;;;;;;7.45;2.97;;;;;;;27.17;51.81;101404.75;5044772;28;20025;-76
2023/08/15 10:54:04;;;;;;;6.93;2.97;;;;;;;27.25;51.31;101401.31;5037872;28;20025;-76
2023/08/15 10:56:36;;;;;;;9.35;3.28;;;;;;;27.24;51.87;101410.72;5040757;28;20136;-76
2023/08/15 10:59:15;;;;;;;9.65;3.42;;;;;;;27.18;52.11;101406.41;5046643;28;20029;-76
2023/08/15 11:01:41;;;;;;;6.60;3.33;;;;;;;28.20;49.72;101403.25;5051332;28;20033;-76
2023/08/15 11:04:14;;;;;;;6.53;2.92;;;;;;;29.83;44.96;101404.06;5038189;28;20377;-76
2023/08/15 11:06:45;;;;;;;7.05;3.03;;;;;;;30.34;43.08;101403.91;5048664;28;20060;-76
2023/08/15 11:09:10;;;;;;;9.07;2.97;;;;;;;29.26;44.25;101407.31;5043914;28;20075;-76
2023/08/15 11:11:36;;;;;;;5.30;2.20;;;;;;;29.56;44.06;101408.59;5032844;28;20029;-76
2023/08/15 11:14:01;;;;;;;6.95;2.65;;;;;;;28.46;46.20;101410.28;5044237;28;20027;-77
2023/08/15 11:16:27;;;;;;;5.85;2.67;;;;;;;28.24;47.01;101418.09;5059915;28;20496;-76
2023/08/15 11:18:52;;;;;;;6.18;2.72;;;;;;;28.20;46.68;101413.47;5059759;28;20056;-76